createdAt,value
2018-11-11T00:01:06.594Z,22.40
2018-11-11T00:03:36.646Z,20.00
2018-11-11T00:06:06.824Z,19.90
2018-11-11T00:08:37.036Z,22.60
2018-11-11T00:11:07.193Z,22.87
2018-11-11T00:13:37.194Z,21.43
2018-11-11T00:16:07.265Z,26.67
2018-11-11T00:18:37.359Z,30.53
2018-11-11T00:21:07.482Z,25.20
2018-11-11T00:23:37.496Z,25.10
2018-11-11T00:26:07.618Z,21.73
2018-11-11T00:28:37.745Z,26.27
2018-11-11T00:31:07.769Z,28.40
2018-11-11T00:33:37.876Z,26.93
2018-11-11T00:36:07.957Z,29.97
2018-11-11T00:38:37.967Z,25.47
2018-11-11T00:41:08.043Z,29.10
2018-11-11T00:43:38.074Z,28.07
2018-11-11T00:46:08.296Z,20.00
2018-11-11T00:48:38.330Z,23.50
2018-11-11T00:51:08.487Z,26.73
2018-11-11T00:53:39.083Z,23.57
2018-11-11T00:56:09.178Z,19.80
2018-11-11T00:58:39.218Z,22.50
2018-11-11T01:01:09.346Z,23.40
2018-11-11T01:03:39.729Z,27.80
2018-11-11T01:06:09.820Z,24.67
2018-11-11T01:08:39.913Z,24.70
2018-11-11T01:11:09.994Z,21.23
2018-11-11T01:13:40.073Z,23.70
2018-11-11T01:16:10.245Z,24.87
2018-11-11T01:18:40.306Z,29.10
2018-11-11T01:21:10.300Z,31.30
2018-11-11T01:23:40.364Z,30.87
2018-11-11T01:26:10.353Z,31.67
2018-11-11T01:28:40.340Z,26.23
2018-11-11T01:31:10.449Z,24.20
2018-11-11T01:33:40.453Z,28.37
2018-11-11T01:36:10.466Z,28.80
2018-11-11T01:38:40.461Z,30.77
2018-11-11T01:41:10.576Z,29.30
2018-11-11T01:43:40.634Z,24.43
2018-11-11T01:46:10.769Z,26.00
2018-11-11T01:48:40.827Z,30.17
2018-11-11T01:51:10.924Z,34.90
2018-11-11T01:53:41.166Z,29.37
2018-11-11T01:56:11.222Z,32.37
2018-11-11T01:58:41.324Z,32.40
2018-11-11T02:01:11.356Z,31.67
2018-11-11T02:03:41.350Z,30.93
2018-11-11T02:06:11.375Z,28.87
2018-11-11T02:08:41.469Z,32.77
2018-11-11T02:11:11.579Z,30.40
2018-11-11T02:13:41.578Z,34.23
2018-11-11T02:16:11.844Z,27.93
2018-11-11T02:18:41.859Z,30.97
2018-11-11T02:21:11.879Z,28.63
2018-11-11T02:23:41.954Z,30.83
2018-11-11T02:26:11.966Z,32.13
2018-11-11T02:28:41.930Z,28.50
2018-11-11T02:31:12.028Z,29.80
2018-11-11T02:33:42.081Z,31.03
2018-11-11T02:36:12.108Z,28.67
2018-11-11T02:38:42.092Z,29.00
2018-11-11T02:41:12.242Z,31.40
2018-11-11T02:43:42.269Z,33.67
2018-11-11T02:46:12.264Z,35.10
2018-11-11T02:48:42.287Z,29.07
2018-11-11T02:51:12.452Z,26.47
2018-11-11T02:53:42.495Z,32.93
2018-11-11T02:56:12.654Z,42.03
2018-11-11T02:58:42.654Z,25.83
2018-11-11T03:01:12.700Z,32.07
2018-11-11T03:03:42.681Z,27.20
2018-11-11T03:06:12.633Z,25.17
2018-11-11T03:08:42.869Z,25.37
2018-11-11T03:11:12.995Z,30.27
2018-11-11T03:13:42.990Z,32.67
2018-11-11T03:16:13.026Z,35.47
2018-11-11T03:18:43.037Z,33.60
2018-11-11T03:21:13.127Z,39.17
2018-11-11T03:23:43.193Z,29.77
2018-11-11T03:26:13.215Z,28.07
2018-11-11T03:28:43.197Z,37.90
2018-11-11T03:31:13.496Z,29.07
2018-11-11T03:33:43.626Z,38.23
2018-11-11T03:36:13.745Z,38.63
2018-11-11T03:38:45.229Z,41.63
2018-11-11T03:41:15.841Z,35.93
2018-11-11T03:43:45.840Z,36.40
2018-11-11T03:46:15.825Z,37.23
2018-11-11T03:48:45.818Z,34.10
2018-11-11T03:51:15.803Z,30.97
2018-11-11T03:53:45.876Z,28.50
2018-11-11T03:56:15.871Z,39.87
2018-11-11T03:58:46.099Z,40.23
2018-11-11T04:01:16.139Z,40.73
2018-11-11T04:03:46.117Z,32.53
2018-11-11T04:06:16.123Z,39.00
2018-11-11T04:08:46.398Z,35.57
2018-11-11T04:11:16.408Z,39.93
2018-11-11T04:13:46.574Z,40.90
2018-11-11T04:16:16.619Z,44.70
2018-11-11T04:18:46.773Z,44.70
2018-11-11T04:21:17.047Z,39.77
2018-11-11T04:23:47.153Z,42.90
2018-11-11T04:26:17.202Z,36.93
2018-11-11T04:28:47.289Z,47.93
2018-11-11T04:31:17.356Z,48.80
2018-11-11T04:33:47.320Z,37.83
2018-11-11T04:36:17.384Z,41.27
2018-11-11T04:38:47.378Z,39.53
2018-11-11T04:41:17.549Z,44.03
2018-11-11T04:43:47.727Z,45.77
2018-11-11T04:46:17.843Z,43.13
2018-11-11T04:48:47.960Z,38.70
2018-11-11T04:51:18.003Z,44.93
2018-11-11T04:53:48.016Z,41.10
2018-11-11T04:56:18.049Z,40.30
2018-11-11T04:58:48.098Z,39.80
2018-11-11T05:01:18.236Z,41.17
2018-11-11T05:03:48.209Z,34.53
2018-11-11T05:06:18.188Z,41.33
2018-11-11T05:08:48.292Z,39.63
2018-11-11T05:11:18.433Z,31.80
2018-11-11T05:13:48.423Z,38.40
2018-11-11T05:16:18.401Z,38.13
2018-11-11T05:18:48.497Z,36.27
2018-11-11T05:21:18.548Z,32.47
2018-11-11T05:23:48.657Z,37.80
2018-11-11T05:26:18.663Z,40.00
2018-11-11T05:28:48.674Z,33.23
2018-11-11T05:31:18.706Z,39.57
2018-11-11T05:33:48.938Z,34.90
2018-11-11T05:36:18.930Z,43.10
2018-11-11T05:38:48.965Z,37.13
2018-11-11T05:41:18.960Z,36.47
2018-11-11T05:43:48.982Z,37.83
2018-11-11T05:46:19.058Z,35.70
2018-11-11T05:48:49.166Z,33.30
2018-11-11T05:51:19.286Z,36.60
2018-11-11T05:53:49.396Z,34.13
2018-11-11T05:56:19.389Z,37.23
2018-11-11T05:58:49.492Z,33.87
2018-11-11T06:01:19.638Z,34.87
2018-11-11T06:03:49.670Z,36.60
2018-11-11T06:06:19.709Z,34.50
2018-11-11T06:08:50.222Z,35.93
2018-11-11T06:11:20.392Z,36.20
2018-11-11T06:13:50.469Z,34.00
2018-11-11T06:16:20.478Z,43.43
2018-11-11T06:18:50.482Z,36.83
2018-11-11T06:21:20.494Z,34.57
2018-11-11T06:23:50.714Z,42.67
2018-11-11T06:26:20.768Z,35.87
2018-11-11T06:28:50.912Z,35.03
2018-11-11T06:31:21.048Z,39.20
2018-11-11T06:33:51.180Z,39.67
2018-11-11T06:36:21.262Z,41.93
2018-11-11T06:38:51.277Z,36.10
2018-11-11T06:41:21.379Z,37.20
2018-11-11T06:43:51.394Z,35.70
2018-11-11T06:46:21.498Z,36.73
2018-11-11T06:48:51.617Z,34.67
2018-11-11T06:51:21.790Z,32.53
2018-11-11T06:53:51.891Z,40.20
2018-11-11T06:56:21.898Z,33.93
2018-11-11T06:58:52.025Z,37.07
2018-11-11T07:01:22.112Z,31.80
2018-11-11T07:03:55.477Z,34.40
2018-11-11T07:06:26.138Z,29.43
2018-11-11T07:08:56.429Z,23.83
2018-11-11T07:11:26.497Z,25.57
2018-11-11T07:13:56.674Z,26.53
2018-11-11T07:16:26.667Z,29.77
2018-11-11T07:18:56.793Z,26.17
2018-11-11T07:21:26.944Z,25.07
2018-11-11T07:23:57.059Z,27.50
2018-11-11T07:26:27.083Z,24.97
2018-11-11T07:28:57.163Z,25.73
2018-11-11T07:31:27.293Z,21.10
2018-11-11T07:33:57.687Z,22.07
2018-11-11T07:36:27.672Z,20.63
2018-11-11T07:38:57.670Z,18.87
2018-11-11T07:41:27.743Z,22.20
2018-11-11T07:43:57.865Z,18.67
2018-11-11T07:46:28.017Z,22.27
2018-11-11T07:48:58.053Z,27.10
2018-11-11T07:51:28.223Z,21.17
2018-11-11T07:53:58.249Z,17.13
2018-11-11T07:56:28.262Z,20.57
2018-11-11T07:58:58.281Z,21.27
2018-11-11T08:01:28.410Z,20.43
2018-11-11T08:03:58.675Z,19.33
2018-11-11T08:06:28.827Z,22.43
2018-11-11T08:08:58.894Z,19.50
2018-11-11T08:12:10.948Z,20.93
2018-11-11T08:14:41.141Z,15.87
2018-11-11T08:17:11.151Z,17.43
2018-11-11T08:19:41.130Z,16.40
2018-11-11T08:22:11.093Z,18.80
2018-11-11T08:24:41.107Z,19.30
2018-11-11T08:27:11.655Z,17.40
2018-11-11T08:29:41.855Z,17.83
2018-11-11T08:32:11.882Z,16.27
2018-11-11T08:34:41.911Z,19.40
2018-11-11T08:37:11.959Z,18.33
2018-11-11T08:39:42.003Z,23.80
2018-11-11T08:42:12.045Z,20.77
2018-11-11T08:44:42.103Z,15.33
2018-11-11T08:47:12.197Z,15.47
2018-11-11T08:49:42.189Z,17.73
2018-11-11T08:52:12.359Z,15.87
2018-11-11T08:54:42.420Z,16.17
2018-11-11T08:57:12.433Z,16.70
2018-11-11T08:59:42.484Z,15.27
2018-11-11T09:02:12.599Z,15.33
2018-11-11T09:04:42.668Z,13.17
2018-11-11T09:07:12.939Z,12.73
2018-11-11T09:09:43.082Z,14.00
2018-11-11T09:12:13.349Z,11.27
2018-11-11T09:14:43.496Z,11.70
2018-11-11T09:17:13.540Z,12.00
2018-11-11T09:19:43.589Z,9.97
2018-11-11T09:22:13.646Z,10.03
2018-11-11T09:24:43.754Z,8.90
2018-11-11T09:27:13.972Z,8.67
2018-11-11T09:29:44.257Z,7.60
2018-11-11T09:32:14.283Z,8.40
2018-11-11T09:34:44.382Z,8.87
2018-11-11T09:37:14.432Z,8.83
2018-11-11T09:39:44.631Z,7.50
2018-11-11T09:42:14.815Z,9.20
2018-11-11T09:44:44.924Z,10.20
2018-11-11T09:47:14.974Z,10.63
2018-11-11T09:49:45.083Z,9.93
2018-11-11T09:52:15.223Z,8.33
2018-11-11T09:54:45.332Z,12.17
2018-11-11T09:57:16.878Z,12.40
2018-11-11T09:59:47.011Z,14.77
2018-11-11T10:02:17.168Z,12.87
2018-11-11T10:04:52.289Z,11.70
2018-11-11T10:07:27.821Z,8.30
2018-11-11T10:10:04.783Z,10.43
2018-11-11T10:12:39.507Z,11.37
2018-11-11T10:15:15.168Z,13.53
2018-11-11T10:17:53.355Z,7.33
2018-11-11T10:20:44.709Z,11.70
2018-11-11T10:23:20.074Z,6.03
2018-11-11T10:25:55.267Z,6.43
2018-11-11T10:28:36.323Z,7.07
2018-11-11T10:31:13.757Z,7.20
2018-11-11T10:33:47.988Z,4.53
2018-11-11T10:36:23.182Z,4.93
2018-11-11T10:39:02.918Z,3.80
2018-11-11T10:41:38.693Z,3.90
2018-11-11T10:44:13.882Z,3.97
2018-11-11T10:47:47.702Z,3.00
2018-11-11T10:51:21.620Z,2.70
2018-11-11T10:53:51.663Z,2.70
2018-11-11T10:56:21.985Z,8.80
2018-11-11T10:58:52.024Z,4.67
2018-11-11T11:01:26.847Z,3.33
2018-11-11T11:03:56.877Z,3.77
2018-11-11T11:06:32.203Z,3.50
2018-11-11T11:09:11.109Z,2.83
2018-11-11T11:11:42.179Z,2.13
2018-11-11T11:14:13.041Z,2.20
2018-11-11T11:16:43.079Z,3.03
2018-11-11T11:19:13.147Z,5.23
2018-11-11T11:21:43.281Z,5.27
2018-11-11T11:24:13.502Z,4.57
2018-11-11T11:26:43.656Z,4.23
2018-11-11T11:29:13.868Z,3.27
2018-11-11T11:31:44.751Z,3.27
2018-11-11T11:34:14.656Z,2.97
2018-11-11T11:36:44.649Z,3.07
2018-11-11T11:39:14.701Z,3.17
2018-11-11T11:41:44.715Z,3.33
2018-11-11T11:44:14.865Z,2.90
2018-11-11T11:46:44.888Z,3.53
2018-11-11T11:49:15.217Z,4.10
2018-11-11T11:51:45.317Z,4.13
2018-11-11T11:54:15.465Z,3.05
2018-11-11T11:56:45.642Z,3.67
2018-11-11T11:59:16.451Z,2.90
2018-11-11T12:01:46.607Z,2.50
2018-11-11T12:04:16.659Z,1.87
2018-11-11T12:06:46.713Z,2.00
2018-11-11T12:09:17.045Z,1.93
2018-11-11T12:11:47.012Z,1.67
2018-11-11T12:14:17.128Z,1.70
2018-11-11T12:16:47.273Z,1.77
2018-11-11T12:19:17.433Z,1.80
2018-11-11T12:21:47.643Z,1.67
2018-11-11T12:24:17.862Z,1.70
2018-11-11T12:26:47.887Z,1.70
2018-11-11T12:29:17.921Z,1.30
2018-11-11T12:31:48.339Z,1.50
2018-11-11T12:34:18.550Z,1.60
2018-11-11T12:36:48.569Z,1.30
2018-11-11T12:39:18.811Z,1.30
2018-11-11T12:41:48.815Z,1.60
2018-11-11T12:44:18.959Z,1.33
2018-11-11T12:46:48.973Z,1.40
2018-11-11T12:49:19.165Z,1.20
2018-11-11T12:51:49.323Z,1.70
2018-11-11T12:54:19.467Z,1.50
2018-11-11T12:56:49.643Z,1.67
2018-11-11T12:59:21.084Z,1.40
2018-11-11T13:01:51.209Z,1.20
2018-11-11T13:04:21.329Z,1.33
2018-11-11T13:06:51.370Z,1.13
2018-11-11T13:09:21.671Z,1.00
2018-11-11T13:11:51.785Z,1.00
2018-11-11T13:14:21.914Z,1.10
2018-11-11T13:16:51.994Z,1.00
2018-11-11T13:19:22.070Z,1.30
2018-11-11T13:21:52.169Z,1.20
2018-11-11T13:24:22.338Z,1.20
2018-11-11T13:26:52.464Z,1.57
2018-11-11T13:29:22.533Z,1.90
2018-11-11T13:31:52.557Z,1.37
2018-11-11T13:34:22.598Z,1.73
2018-11-11T13:36:52.750Z,3.37
2018-11-11T13:39:22.858Z,2.40
2018-11-11T13:41:52.934Z,2.20
2018-11-11T13:44:23.058Z,2.20
2018-11-11T13:46:53.157Z,2.50
2018-11-11T13:49:23.245Z,1.77
2018-11-11T13:51:53.395Z,2.53
2018-11-11T13:54:24.003Z,2.37
2018-11-11T13:56:54.027Z,2.17
2018-11-11T13:59:24.180Z,2.00
2018-11-11T14:01:54.279Z,1.73
2018-11-11T14:04:24.411Z,1.70
2018-11-11T14:06:54.410Z,1.70
2018-11-11T14:09:24.667Z,1.73
2018-11-11T14:11:54.642Z,1.70
2018-11-11T14:14:24.840Z,2.00
2018-11-11T14:16:54.981Z,1.40
2018-11-11T14:19:25.129Z,10.67
2018-11-11T14:21:55.382Z,4.17
2018-11-11T14:24:26.035Z,5.70
2018-11-11T14:26:56.239Z,10.60
2018-11-11T14:29:26.321Z,8.80
2018-11-11T14:31:56.400Z,7.93
2018-11-11T14:34:26.474Z,6.27
2018-11-11T14:36:56.444Z,7.17
2018-11-11T14:39:26.461Z,5.27
2018-11-11T14:41:56.530Z,4.77
2018-11-11T14:44:26.635Z,5.17
2018-11-11T14:46:56.894Z,3.97
2018-11-11T14:49:27.096Z,10.90
2018-11-11T14:51:57.193Z,6.97
2018-11-11T14:54:27.352Z,15.33
2018-11-11T14:56:57.641Z,14.33
2018-11-11T14:59:27.689Z,8.47
2018-11-11T15:01:57.724Z,10.47
2018-11-11T15:04:27.907Z,9.00
2018-11-11T15:06:57.946Z,5.17
2018-11-11T15:09:28.138Z,5.27
2018-11-11T15:11:58.274Z,5.47
2018-11-11T15:14:28.330Z,5.27
2018-11-11T15:16:58.553Z,4.27
2018-11-11T15:19:28.863Z,3.30
2018-11-11T15:21:58.729Z,3.37
2018-11-11T15:24:28.762Z,4.50
2018-11-11T15:26:58.765Z,4.77
2018-11-11T15:29:29.001Z,4.40
2018-11-11T15:31:59.172Z,5.10
2018-11-11T15:34:29.287Z,4.07
2018-11-11T15:36:59.357Z,3.93
2018-11-11T15:39:29.404Z,3.60
2018-11-11T15:41:59.586Z,3.63
2018-11-11T15:44:29.894Z,3.40
2018-11-11T15:47:00.075Z,3.17
2018-11-11T15:49:30.256Z,3.67
2018-11-11T15:52:00.432Z,2.57
2018-11-11T15:54:30.485Z,3.10
2018-11-11T15:57:00.664Z,3.13
2018-11-11T15:59:30.727Z,3.20
2018-11-11T16:02:00.753Z,3.60
2018-11-11T16:04:30.795Z,3.40
2018-11-11T16:07:00.956Z,4.40
2018-11-11T16:09:31.107Z,3.67
2018-11-11T16:12:01.353Z,4.80
2018-11-11T16:14:31.570Z,4.50
2018-11-11T16:17:01.625Z,3.77
2018-11-11T16:19:31.962Z,3.83
2018-11-11T16:22:02.110Z,4.33
2018-11-11T16:24:32.240Z,4.63
2018-11-11T16:27:02.421Z,5.00
2018-11-11T16:29:32.524Z,5.27
2018-11-11T16:32:03.384Z,6.47
2018-11-11T16:34:33.564Z,7.50
2018-11-11T16:37:03.687Z,5.37
2018-11-11T16:39:33.882Z,6.73
2018-11-11T16:42:04.106Z,6.57
2018-11-11T16:44:34.425Z,7.10
2018-11-11T16:47:04.679Z,9.13
2018-11-11T16:49:34.771Z,8.93
2018-11-11T16:52:04.942Z,8.77
2018-11-11T16:54:36.230Z,7.23
2018-11-11T16:57:06.743Z,8.30
2018-11-11T16:59:36.792Z,8.87
2018-11-11T17:02:07.436Z,9.83
2018-11-11T17:04:37.867Z,10.93
2018-11-11T17:07:08.033Z,9.23
2018-11-11T17:09:38.129Z,8.10
2018-11-11T17:12:08.329Z,8.47
2018-11-11T17:14:38.515Z,7.70
2018-11-11T17:17:08.599Z,8.93
2018-11-11T17:19:38.763Z,9.13
2018-11-11T17:22:09.143Z,9.67
2018-11-11T17:24:39.060Z,11.53
2018-11-11T17:27:09.232Z,7.67
2018-11-11T17:29:39.416Z,7.73
2018-11-11T17:32:10.495Z,8.47
2018-11-11T17:34:40.759Z,7.23
2018-11-11T17:37:10.941Z,9.10
2018-11-11T17:39:41.067Z,7.67
2018-11-11T17:42:11.132Z,8.27
2018-11-11T17:44:41.353Z,6.60
2018-11-11T17:47:11.553Z,10.07
2018-11-11T17:49:41.770Z,7.60
2018-11-11T17:52:11.904Z,9.27
2018-11-11T17:54:42.057Z,9.70
2018-11-11T17:57:12.117Z,8.10
2018-11-11T17:59:42.230Z,8.40
2018-11-11T18:02:12.280Z,8.10
2018-11-11T18:04:42.330Z,7.60
2018-11-11T18:07:12.362Z,8.07
2018-11-11T18:09:42.522Z,8.63
2018-11-11T18:12:12.709Z,8.73
2018-11-11T18:14:42.844Z,7.53
2018-11-11T18:17:13.102Z,8.30
2018-11-11T18:19:43.133Z,8.30
2018-11-11T18:22:13.212Z,9.47
2018-11-11T18:24:43.764Z,7.70
2018-11-11T18:27:14.090Z,8.27
2018-11-11T18:29:44.026Z,7.73
2018-11-11T18:32:14.045Z,9.10
2018-11-11T18:34:44.172Z,7.10
2018-11-11T18:37:14.232Z,10.57
2018-11-11T18:39:44.302Z,13.10
2018-11-11T18:42:14.390Z,8.03
2018-11-11T18:44:44.614Z,9.17
2018-11-11T18:47:15.382Z,9.53
2018-11-11T18:49:45.585Z,9.10
2018-11-11T18:52:15.689Z,7.63
2018-11-11T18:54:46.350Z,10.40
2018-11-11T18:57:16.455Z,11.17
2018-11-11T18:59:46.455Z,10.30
2018-11-11T19:02:17.707Z,13.20
2018-11-11T19:04:47.878Z,12.10
2018-11-11T19:07:17.914Z,13.40
2018-11-11T19:09:48.032Z,12.07
2018-11-11T19:12:18.147Z,13.43
2018-11-11T19:14:48.409Z,12.40
2018-11-11T19:17:18.658Z,13.87
2018-11-11T19:19:48.954Z,12.93
2018-11-11T19:22:19.704Z,14.13
2018-11-11T19:24:49.821Z,15.13
2018-11-11T19:27:20.052Z,16.90
2018-11-11T19:29:50.270Z,13.40
2018-11-11T19:32:20.926Z,13.63
2018-11-11T19:34:51.102Z,12.60
2018-11-11T19:37:21.300Z,16.83
2018-11-11T19:39:51.360Z,15.27
2018-11-11T19:42:21.453Z,18.07
2018-11-11T19:44:51.630Z,15.73
2018-11-11T19:47:21.789Z,16.23
2018-11-11T19:49:52.052Z,16.23
2018-11-11T19:52:22.148Z,15.73
2018-11-11T19:54:53.548Z,12.50
2018-11-11T19:57:24.803Z,15.30
2018-11-11T19:59:54.963Z,14.50
2018-11-11T20:02:25.205Z,15.47
2018-11-11T20:04:56.637Z,14.23
2018-11-11T20:07:26.790Z,12.57
2018-11-11T20:09:57.439Z,14.30
2018-11-11T20:12:27.594Z,14.03
2018-11-11T20:14:57.754Z,14.33
2018-11-11T20:17:28.090Z,13.80
2018-11-11T20:19:58.156Z,12.90
2018-11-11T20:22:28.367Z,10.40
2018-11-11T20:24:58.563Z,13.67
2018-11-11T20:27:29.875Z,13.93
2018-11-11T20:30:00.064Z,13.57
2018-11-11T20:32:30.889Z,11.77
2018-11-11T20:35:01.164Z,13.20
2018-11-11T20:37:31.294Z,13.73
2018-11-11T20:40:01.485Z,12.30
2018-11-11T20:42:32.444Z,13.93
2018-11-11T20:45:04.010Z,12.07
2018-11-11T20:47:34.188Z,12.70
2018-11-11T20:50:04.829Z,15.23
2018-11-11T20:52:34.963Z,15.00
2018-11-11T20:55:06.899Z,15.27
2018-11-11T20:57:37.628Z,14.93
2018-11-11T21:00:12.492Z,17.90
2018-11-11T21:02:43.349Z,14.93
2018-11-11T21:05:15.764Z,14.30
2018-11-11T21:07:45.821Z,15.50
2018-11-11T21:10:19.249Z,13.00
2018-11-11T21:12:49.259Z,16.40
2018-11-11T21:15:21.866Z,14.93
2018-11-11T21:17:52.293Z,17.03
2018-11-11T21:20:23.846Z,16.77
2018-11-11T21:22:54.393Z,18.80
2018-11-11T21:25:24.787Z,17.67
2018-11-11T21:27:54.939Z,14.47
2018-11-11T21:30:27.181Z,17.80
2018-11-11T21:32:57.512Z,16.73
2018-11-11T21:35:28.684Z,17.90
2018-11-11T21:37:59.100Z,17.40
2018-11-11T21:40:29.271Z,17.20
2018-11-11T21:42:59.387Z,17.53
2018-11-11T21:45:29.979Z,19.10
2018-11-11T21:48:00.189Z,12.00
2018-11-11T21:50:30.607Z,19.47
2018-11-11T21:53:39.647Z,14.77
2018-11-11T21:56:10.425Z,15.63
2018-11-11T21:58:40.877Z,15.73
2018-11-11T22:01:10.948Z,18.57
2018-11-11T22:03:41.104Z,16.63
2018-11-11T22:06:12.347Z,16.67
2018-11-11T22:08:42.405Z,18.80
2018-11-11T22:11:12.450Z,15.77
2018-11-11T22:13:42.509Z,18.33
2018-11-11T22:16:12.561Z,15.27
2018-11-11T22:18:42.906Z,18.97
2018-11-11T22:21:12.975Z,18.97
2018-11-11T22:23:43.694Z,16.70
2018-11-11T22:26:13.757Z,16.50
2018-11-11T22:28:43.840Z,13.87
2018-11-11T22:31:14.013Z,16.10
2018-11-11T22:33:44.220Z,17.10
2018-11-11T22:36:14.259Z,18.03
2018-11-11T22:38:44.610Z,18.27
2018-11-11T22:41:14.809Z,17.23
2018-11-11T22:43:45.140Z,16.73
2018-11-11T22:46:15.278Z,15.87
2018-11-11T22:48:45.374Z,16.03
2018-11-11T22:51:15.451Z,19.10
2018-11-11T22:53:45.612Z,18.70
2018-11-11T22:56:15.692Z,16.27
2018-11-11T22:58:45.869Z,20.87
2018-11-11T23:01:20.922Z,15.27
2018-11-11T23:03:51.460Z,14.87
2018-11-11T23:06:21.424Z,15.80
2018-11-11T23:08:51.490Z,16.47
2018-11-11T23:11:21.554Z,13.63
2018-11-11T23:13:51.613Z,17.33
2018-11-11T23:16:21.613Z,15.13
2018-11-11T23:18:51.678Z,21.33
2018-11-11T23:21:21.944Z,15.97
2018-11-11T23:23:52.144Z,16.77
2018-11-11T23:26:22.184Z,15.50
2018-11-11T23:28:52.280Z,14.27
2018-11-11T23:31:22.670Z,19.57
2018-11-11T23:33:52.848Z,16.63
2018-11-11T23:36:22.956Z,18.27
2018-11-11T23:38:53.182Z,20.20
2018-11-11T23:41:23.522Z,19.43
2018-11-11T23:43:53.685Z,17.13
2018-11-11T23:46:23.681Z,18.07
2018-11-11T23:48:53.718Z,19.50
2018-11-11T23:51:23.902Z,19.60
2018-11-11T23:53:53.993Z,19.20
2018-11-11T23:56:23.941Z,15.40
2018-11-11T23:58:53.956Z,14.93
